Time;durP1;ratioP1;P1;durP2;ratioP2;P2;SDS_P1;SDS_P2;PMS_P1;PMS_P2;Temp;Humidity;BMP_temperature;BMP_pressure;BME280_temperature;BME280_humidity;BME280_pressure;Samples;Min_cycle;Max_cycle;Signal;HPM_P1;HPM_P2
2022/03/03 00:00:06;;;;;;;13.40;7.38;;;;;;;20.81;36.69;101860.53;7307321;19;129584;-63
2022/03/03 00:02:32;;;;;;;10.43;6.93;;;;;;;20.79;36.98;101865.50;7309174;19;131744;-63
2022/03/03 00:04:59;;;;;;;11.07;7.35;;;;;;;20.79;37.03;101859.94;7308616;19;129884;-62
2022/03/03 00:07:27;;;;;;;10.38;6.78;;;;;;;20.78;37.19;101855.47;7307828;19;129801;-63
2022/03/03 00:09:53;;;;;;;12.23;7.80;;;;;;;20.75;37.14;101855.91;7311012;19;129548;-63
2022/03/03 00:12:20;;;;;;;13.70;7.25;;;;;;;20.73;37.00;101864.50;7309595;19;129376;-63
2022/03/03 00:14:47;;;;;;;12.40;7.05;;;;;;;20.71;36.79;101866.66;7308993;19;129163;-63
2022/03/03 00:17:14;;;;;;;11.65;6.93;;;;;;;20.71;37.04;101865.78;7309877;19;129665;-63
2022/03/03 00:19:41;;;;;;;11.02;6.97;;;;;;;20.69;37.19;101856.84;7307298;19;132314;-63
2022/03/03 00:22:07;;;;;;;11.02;7.00;;;;;;;20.68;36.88;101867.13;7308732;19;131313;-63
2022/03/03 00:24:34;;;;;;;10.63;6.45;;;;;;;20.66;37.20;101866.50;7308439;19;129047;-63
2022/03/03 00:27:01;;;;;;;9.70;7.05;;;;;;;20.66;37.18;101865.69;7310702;19;130039;-62
2022/03/03 00:29:28;;;;;;;13.32;7.47;;;;;;;20.65;36.80;101866.75;7316356;19;129545;-63
2022/03/03 00:31:54;;;;;;;11.77;7.13;;;;;;;20.63;36.73;101866.16;7312750;19;129781;-63
2022/03/03 00:34:21;;;;;;;10.27;7.20;;;;;;;20.62;36.73;101868.06;7315677;19;130457;-63
2022/03/03 00:36:48;;;;;;;10.07;7.13;;;;;;;20.61;36.89;101860.84;7316822;19;130212;-63
2022/03/03 00:39:15;;;;;;;13.02;6.88;;;;;;;20.57;36.91;101852.09;7314718;19;130337;-63
2022/03/03 00:41:42;;;;;;;12.48;6.97;;;;;;;20.57;36.71;101857.66;7314091;19;129143;-63
2022/03/03 00:44:09;;;;;;;9.18;6.45;;;;;;;20.55;37.01;101857.06;7313846;19;130055;-63
2022/03/03 00:46:37;;;;;;;8.98;6.88;;;;;;;20.55;36.98;101858.97;7316959;19;130483;-63
2022/03/03 00:49:05;;;;;;;12.77;7.25;;;;;;;20.52;36.62;101851.97;7314181;19;130456;-63
2022/03/03 00:51:32;;;;;;;9.55;6.60;;;;;;;20.51;36.99;101864.19;7314960;19;128977;-63
2022/03/03 00:53:58;;;;;;;9.93;6.03;;;;;;;20.50;36.84;101848.56;7316628;19;129073;-62
2022/03/03 00:56:25;;;;;;;11.18;6.75;;;;;;;20.49;37.17;101849.66;7312107;19;129637;-63
2022/03/03 00:58:52;;;;;;;9.90;5.93;;;;;;;20.49;37.16;101862.72;7314807;19;130750;-62
2022/03/03 01:01:19;;;;;;;10.63;6.30;;;;;;;20.47;36.96;101860.16;7315181;19;128935;-63
2022/03/03 01:03:46;;;;;;;9.80;6.15;;;;;;;20.46;37.13;101855.69;7311593;19;129723;-62
2022/03/03 01:06:14;;;;;;;10.00;6.47;;;;;;;20.44;36.97;101861.50;7314733;19;130032;-63
2022/03/03 01:08:41;;;;;;;9.63;6.55;;;;;;;20.43;37.05;101858.97;7312692;19;130641;-63
2022/03/03 01:11:07;;;;;;;8.50;5.63;;;;;;;20.41;36.79;101859.19;7314174;19;129361;-63
2022/03/03 01:13:34;;;;;;;9.65;6.15;;;;;;;20.40;36.65;101849.13;7313264;19;129555;-63
2022/03/03 01:16:02;;;;;;;10.68;6.72;;;;;;;20.40;37.08;101845.53;7313718;19;129645;-63
2022/03/03 01:18:29;;;;;;;8.85;5.93;;;;;;;20.39;36.75;101841.88;7314399;19;129599;-62
2022/03/03 01:20:57;;;;;;;14.25;6.95;;;;;;;20.39;36.89;101846.59;7311791;19;129551;-63
2022/03/03 01:23:23;;;;;;;10.93;6.32;;;;;;;20.37;36.67;101840.44;7311805;19;129550;-63
2022/03/03 01:25:50;;;;;;;9.73;6.22;;;;;;;20.36;37.07;101847.94;7314022;19;129558;-63
2022/03/03 01:28:17;;;;;;;10.15;6.13;;;;;;;20.33;36.81;101841.97;7311913;19;130073;-63
2022/03/03 01:30:44;;;;;;;11.02;6.32;;;;;;;20.33;36.93;101844.75;7314125;19;129855;-62
2022/03/03 01:33:12;;;;;;;10.90;6.72;;;;;;;20.32;37.05;101840.28;7313274;19;129775;-63
2022/03/03 01:35:40;;;;;;;10.48;6.53;;;;;;;20.32;36.82;101832.81;7309363;19;131899;-63
2022/03/03 01:38:07;;;;;;;10.52;5.97;;;;;;;20.30;37.10;101829.41;7312558;19;129439;-63
2022/03/03 01:40:34;;;;;;;12.93;6.65;;;;;;;20.28;36.57;101828.78;7311190;19;129179;-63
2022/03/03 01:43:01;;;;;;;8.32;6.03;;;;;;;20.27;37.11;101827.97;7311239;19;129839;-62
2022/03/03 01:45:28;;;;;;;10.10;6.18;;;;;;;20.24;36.93;101817.31;7314399;19;129712;-63
2022/03/03 01:47:55;;;;;;;10.25;6.40;;;;;;;20.23;37.04;101823.94;7312299;19;129793;-62
2022/03/03 01:50:21;;;;;;;8.73;6.07;;;;;;;20.23;36.67;101817.56;7314171;19;129747;-63
2022/03/03 01:52:48;;;;;;;10.57;6.30;;;;;;;20.23;37.00;101817.56;7311838;19;129244;-63
2022/03/03 01:55:15;;;;;;;9.45;6.00;;;;;;;20.20;36.92;101816.06;7313436;19;129847;-63
2022/03/03 01:57:42;;;;;;;9.73;5.82;;;;;;;20.19;36.82;101808.81;7313965;19;130419;-63
2022/03/03 02:00:10;;;;;;;8.45;5.90;;;;;;;20.18;36.70;101812.72;7311732;19;129153;-62
2022/03/03 02:02:38;;;;;;;11.18;5.90;;;;;;;20.18;37.04;101814.63;7312779;19;130299;-63
2022/03/03 02:05:07;;;;;;;11.07;6.50;;;;;;;20.17;36.64;101805.47;7310703;19;129468;-63
2022/03/03 02:07:34;;;;;;;8.85;5.45;;;;;;;20.16;36.98;101808.44;7311922;19;129535;-63
2022/03/03 02:10:03;;;;;;;8.95;5.63;;;;;;;20.15;36.86;101802.06;7313922;19;128857;-62
2022/03/03 02:12:30;;;;;;;11.70;6.20;;;;;;;20.14;36.92;101805.91;7312072;19;129434;-63
2022/03/03 02:14:58;;;;;;;9.13;6.03;;;;;;;20.13;36.84;101804.22;7314242;19;130740;-63
2022/03/03 02:17:25;;;;;;;9.38;5.50;;;;;;;20.11;37.02;101790.59;7311222;19;130723;-63
2022/03/03 02:19:52;;;;;;;8.30;5.40;;;;;;;20.10;37.06;101800.00;7313237;19;128796;-63
2022/03/03 02:22:19;;;;;;;10.98;5.90;;;;;;;20.09;37.05;101797.44;7313676;19;128885;-63
2022/03/03 02:24:46;;;;;;;9.13;6.15;;;;;;;20.08;37.14;101784.63;7311779;19;130236;-63
2022/03/03 02:27:13;;;;;;;8.73;5.82;;;;;;;20.07;36.66;101789.34;7313933;19;131455;-63
2022/03/03 02:29:40;;;;;;;9.98;5.72;;;;;;;20.07;36.87;101782.94;7311213;19;129272;-63
2022/03/03 02:32:08;;;;;;;10.88;5.40;;;;;;;20.06;36.89;101778.47;7311784;19;129837;-63
2022/03/03 02:34:35;;;;;;;7.95;5.47;;;;;;;20.04;36.91;101770.38;7313839;19;131383;-63
2022/03/03 02:37:02;;;;;;;9.45;5.50;;;;;;;20.04;36.78;101777.88;7310303;19;130030;-63
2022/03/03 02:39:29;;;;;;;9.23;6.10;;;;;;;20.03;36.95;101781.72;7311873;19;129300;-62
2022/03/03 02:41:56;;;;;;;8.85;6.20;;;;;;;20.02;36.58;101768.91;7309958;19;129872;-63
2022/03/03 02:44:22;;;;;;;10.90;6.20;;;;;;;19.99;36.67;101771.06;7310887;19;129621;-63
2022/03/03 02:46:49;;;;;;;10.85;5.95;;;;;;;20.00;36.65;101766.34;7313131;19;130314;-63
2022/03/03 02:49:16;;;;;;;7.80;5.72;;;;;;;19.99;36.31;101776.63;7310565;19;129249;-63
2022/03/03 02:51:43;;;;;;;13.05;6.40;;;;;;;19.97;36.77;101767.66;7311372;19;129275;-63
2022/03/03 02:54:10;;;;;;;9.95;6.18;;;;;;;19.96;36.43;101765.13;7308883;19;130893;-63
2022/03/03 02:57:53;;;;;;;10.85;6.05;;;;;;;19.95;36.62;101758.69;7311244;19;130620;-63
2022/03/03 02:59:24;;;;;;;10.10;6.03;;;;;;;19.93;36.18;101752.56;7312355;19;129841;-63
2022/03/03 03:01:50;;;;;;;8.07;5.50;;;;;;;19.93;36.75;101760.88;7309511;19;129394;-63
2022/03/03 03:04:17;;;;;;;12.00;6.43;;;;;;;19.93;36.49;101752.56;7309547;19;129526;-63
2022/03/03 03:06:44;;;;;;;8.23;5.93;;;;;;;19.91;36.48;101746.38;7309132;19;133597;-63
2022/03/03 03:09:11;;;;;;;8.48;5.25;;;;;;;19.91;36.71;101751.06;7310715;19;128981;-63
2022/03/03 03:11:38;;;;;;;6.20;5.10;;;;;;;19.89;36.53;101754.09;7313305;19;129381;-63
2022/03/03 03:14:05;;;;;;;9.60;5.55;;;;;;;19.89;36.75;101753.22;7309859;19;129601;-63
2022/03/03 03:16:32;;;;;;;9.68;5.75;;;;;;;19.87;36.56;101747.09;7312264;19;131079;-63
2022/03/03 03:18:58;;;;;;;8.85;5.63;;;;;;;19.86;36.57;101742.63;7310704;19;129200;-63
2022/03/03 03:21:25;;;;;;;8.85;5.78;;;;;;;19.84;36.52;101740.06;7311514;19;131412;-63
2022/03/03 03:23:52;;;;;;;9.30;6.40;;;;;;;19.82;36.57;101737.53;7309816;19;130461;-63
2022/03/03 03:26:19;;;;;;;8.27;5.85;;;;;;;19.82;36.28;101728.34;7309365;19;129320;-63
2022/03/03 03:28:45;;;;;;;7.47;6.30;;;;;;;19.81;36.07;101727.50;7311740;19;129638;-63
2022/03/03 03:31:12;;;;;;;9.25;5.95;;;;;;;19.80;36.08;101727.75;7308809;19;129491;-63
2022/03/03 03:33:39;;;;;;;11.63;6.88;;;;;;;19.79;35.79;101737.16;7309757;19;129569;-63
2022/03/03 03:36:06;;;;;;;11.05;6.55;;;;;;;19.77;35.92;101728.22;7312132;19;130540;-63
2022/03/03 03:38:33;;;;;;;10.07;6.28;;;;;;;19.76;35.65;101727.34;7308991;19;128976;-63
2022/03/03 03:41:00;;;;;;;11.98;6.57;;;;;;;19.75;35.80;101724.81;7307647;19;129096;-63
2022/03/03 03:43:27;;;;;;;9.60;6.57;;;;;;;19.75;35.58;101730.38;7309817;19;132688;-63
2022/03/03 03:45:57;;;;;;;12.02;6.65;;;;;;;19.74;36.04;101725.91;7310223;19;130461;-63
2022/03/03 03:48:23;;;;;;;7.95;5.72;;;;;;;19.73;35.60;101733.38;7311145;19;129777;-63
2022/03/03 03:50:50;;;;;;;8.55;5.90;;;;;;;19.71;35.69;101723.56;7307896;19;129173;-63
2022/03/03 03:53:17;;;;;;;8.65;5.72;;;;;;;19.69;35.83;101724.66;7310497;19;130685;-63
2022/03/03 03:55:44;;;;;;;9.73;6.05;;;;;;;19.68;35.79;101731.31;7310884;19;130162;-63
2022/03/03 03:58:10;;;;;;;8.52;6.35;;;;;;;19.68;35.67;101728.53;7309226;19;129043;-63
2022/03/03 04:00:37;;;;;;;9.82;6.60;;;;;;;19.66;35.59;101727.91;7311915;19;128942;-63
2022/03/03 04:03:04;;;;;;;7.63;5.78;;;;;;;19.66;35.25;101727.91;7315161;19;130173;-63
2022/03/03 04:05:32;;;;;;;9.27;5.95;;;;;;;19.64;35.52;101727.31;7316835;19;131356;-63
2022/03/03 04:07:58;;;;;;;10.95;6.70;;;;;;;19.65;35.43;101728.13;7317523;19;129042;-63
2022/03/03 04:10:25;;;;;;;11.07;6.53;;;;;;;19.64;35.64;101734.78;7316617;19;129512;-63
2022/03/03 04:12:52;;;;;;;7.63;6.15;;;;;;;19.62;35.34;101735.00;7318134;19;130394;-63
2022/03/03 04:15:19;;;;;;;9.45;6.68;;;;;;;19.63;35.47;101733.09;7314619;19;130821;-63
2022/03/03 04:17:45;;;;;;;8.30;5.72;;;;;;;19.61;35.33;101730.53;7317433;19;129271;-63
2022/03/03 04:20:12;;;;;;;11.55;6.88;;;;;;;19.60;35.44;101728.84;7314491;19;129420;-63
2022/03/03 04:22:39;;;;;;;10.73;6.40;;;;;;;19.61;35.09;101718.59;7314952;19;129584;-63
2022/03/03 04:25:10;;;;;;;8.45;6.05;;;;;;;19.58;34.94;101719.91;7315773;19;131219;-63
2022/03/03 04:27:38;;;;;;;8.98;6.47;;;;;;;19.58;35.29;101727.38;7314085;19;131692;-63
2022/03/03 04:30:07;;;;;;;9.98;6.03;;;;;;;19.57;35.02;101720.97;7316145;19;128921;-63
2022/03/03 04:32:33;;;;;;;10.02;6.60;;;;;;;19.56;34.90;101722.09;7317054;19;130701;-62
2022/03/03 04:35:00;;;;;;;8.30;5.88;;;;;;;19.55;35.12;101714.84;7314160;19;129561;-63
2022/03/03 04:37:27;;;;;;;9.40;6.13;;;;;;;19.54;34.81;101713.13;7316246;19;128813;-63
2022/03/03 04:39:54;;;;;;;8.82;6.25;;;;;;;19.53;34.90;101717.00;7311087;19;130364;-63
2022/03/03 04:42:21;;;;;;;9.23;5.95;;;;;;;19.54;35.17;101715.91;7314057;19;130416;-63
2022/03/03 04:44:48;;;;;;;8.15;6.03;;;;;;;19.52;35.18;101710.56;7313020;19;129993;-63
2022/03/03 04:47:14;;;;;;;7.47;6.20;;;;;;;19.52;35.03;101715.28;7314454;19;129322;-63
2022/03/03 04:49:41;;;;;;;6.72;5.45;;;;;;;19.51;35.04;101713.59;7315734;19;129482;-63
2022/03/03 04:52:08;;;;;;;8.88;5.95;;;;;;;19.52;35.41;101712.53;7315811;19;129473;-63
2022/03/03 04:54:35;;;;;;;8.90;5.93;;;;;;;19.55;35.55;101709.28;7313614;19;130046;-63
2022/03/03 04:57:02;;;;;;;11.55;5.65;;;;;;;19.61;35.27;101705.56;7316840;19;130207;-63
2022/03/03 04:59:29;;;;;;;8.00;5.50;;;;;;;19.77;35.30;101708.78;7311723;19;129561;-63
2022/03/03 05:01:56;;;;;;;8.02;5.40;;;;;;;19.96;35.09;101710.41;7315774;19;130140;-63
2022/03/03 05:04:23;;;;;;;8.65;5.70;;;;;;;20.22;34.83;101704.72;7313108;19;129497;-63
2022/03/03 05:06:50;;;;;;;8.43;5.07;;;;;;;20.52;35.04;101703.78;7313488;19;129815;-63
2022/03/03 05:09:16;;;;;;;7.10;5.30;;;;;;;20.84;34.31;101707.09;7315481;19;130522;-63
2022/03/03 05:11:44;;;;;;;8.25;5.47;;;;;;;21.18;34.30;101704.50;7311557;19;129699;-64
2022/03/03 05:14:10;;;;;;;6.25;4.68;;;;;;;21.49;33.53;101705.19;7312321;19;130201;-64
2022/03/03 05:16:37;;;;;;;5.93;4.35;;;;;;;21.77;33.51;101695.16;7315695;19;129174;-63
2022/03/03 05:19:04;;;;;;;5.82;4.43;;;;;;;22.00;32.97;101701.72;7313153;19;130632;-63
2022/03/03 05:21:34;;;;;;;7.47;4.80;;;;;;;22.17;32.87;101698.09;7316383;19;130495;-63
2022/03/03 05:24:01;;;;;;;6.28;4.38;;;;;;;22.28;32.83;101699.97;7313051;19;130538;-64
2022/03/03 05:26:28;;;;;;;5.03;4.18;;;;;;;22.33;32.62;101702.03;7314026;19;129015;-63
2022/03/03 05:28:55;;;;;;;6.20;4.35;;;;;;;22.34;32.83;101704.56;7315219;19;129893;-63
2022/03/03 05:31:21;;;;;;;7.05;4.53;;;;;;;22.34;32.16;101695.38;7312355;19;130140;-63
2022/03/03 05:33:49;;;;;;;6.68;4.95;;;;;;;22.31;32.43;101701.44;7314428;19;129430;-62
2022/03/03 05:36:16;;;;;;;6.70;4.68;;;;;;;22.24;32.42;101699.66;7313347;19;129103;-63
2022/03/03 05:38:43;;;;;;;8.02;4.93;;;;;;;22.19;32.58;101707.03;7313206;19;129713;-63
2022/03/03 05:41:11;;;;;;;7.03;4.60;;;;;;;22.13;32.31;101709.75;7312115;19;130094;-63
2022/03/03 05:43:38;;;;;;;7.18;5.03;;;;;;;22.04;32.63;101711.25;7309777;19;130499;-63
2022/03/03 05:46:05;;;;;;;6.63;5.07;;;;;;;21.97;32.54;101705.00;7312929;19;128973;-62
2022/03/03 05:48:32;;;;;;;7.15;4.80;;;;;;;21.89;32.91;101697.06;7314628;19;129207;-63
2022/03/03 05:50:59;;;;;;;7.40;4.45;;;;;;;21.80;32.89;101697.44;7313323;19;131028;-63
2022/03/03 05:53:25;;;;;;;7.32;5.15;;;;;;;21.72;32.80;101711.78;7313614;19;129508;-62
2022/03/03 05:55:58;;;;;;;6.95;4.53;;;;;;;21.64;32.93;101701.03;7312521;19;129832;-63
2022/03/03 05:58:42;;;;;;;5.90;4.40;;;;;;;21.56;33.29;101704.19;7312174;19;129178;-62
2022/03/03 06:01:10;;;;;;;5.45;4.93;;;;;;;21.47;33.14;101701.78;7313714;19;130018;-63
2022/03/03 06:03:38;;;;;;;7.65;4.63;;;;;;;21.40;33.61;101706.66;7310916;19;129863;-62
2022/03/03 06:06:21;;;;;;;7.32;4.10;;;;;;;21.33;33.33;101711.50;7313132;19;128999;-63
2022/03/03 06:08:56;;;;;;;6.68;4.90;;;;;;;21.25;33.26;101707.16;7312381;19;130023;-63
2022/03/03 06:11:26;;;;;;;8.85;4.97;;;;;;;21.18;33.49;101701.72;7311262;19;129564;-63
2022/03/03 06:14:05;;;;;;;6.68;4.53;;;;;;;21.13;33.43;101706.34;7313232;19;130489;-62
2022/03/03 06:16:32;;;;;;;7.85;4.93;;;;;;;21.07;33.36;101702.59;7312963;19;130457;-59
2022/03/03 06:18:59;;;;;;;7.45;5.10;;;;;;;21.01;33.27;101693.28;7309186;19;128988;-62
2022/03/03 06:21:26;;;;;;;7.05;4.65;;;;;;;20.96;33.46;101690.41;7313467;19;130578;-61
2022/03/03 06:23:53;;;;;;;6.57;4.55;;;;;;;20.90;33.45;101692.22;7307797;19;129557;-61
2022/03/03 06:26:20;;;;;;;7.38;4.95;;;;;;;20.85;33.38;101683.75;7312425;19;129651;-60
2022/03/03 06:28:47;;;;;;;6.38;4.90;;;;;;;20.80;33.14;101686.41;7309643;19;129273;-60
2022/03/03 06:31:14;;;;;;;8.95;5.03;;;;;;;20.75;33.20;101689.91;7309459;19;129621;-60
2022/03/03 06:33:41;;;;;;;7.85;4.93;;;;;;;20.69;33.57;101688.09;7310799;19;129850;-60
2022/03/03 06:36:08;;;;;;;6.22;4.63;;;;;;;20.65;33.34;101688.81;7309201;19;128738;-61
2022/03/03 06:38:36;;;;;;;10.00;5.20;;;;;;;20.63;33.61;101691.00;7309279;19;129777;-61
2022/03/03 06:41:05;;;;;;;6.82;5.18;;;;;;;20.59;33.30;101694.25;7309278;19;129609;-60
2022/03/03 06:43:34;;;;;;;10.02;4.68;;;;;;;20.55;33.45;101695.84;7308771;19;132908;-61
2022/03/03 06:46:01;;;;;;;7.22;5.07;;;;;;;20.53;33.23;101686.88;7309519;19;129015;-60
2022/03/03 06:48:28;;;;;;;7.65;5.20;;;;;;;20.51;33.18;101700.19;7311180;19;130517;-61
2022/03/03 06:50:56;;;;;;;7.38;5.25;;;;;;;20.49;33.22;101696.78;7309038;19;129610;-61
2022/03/03 06:53:31;;;;;;;9.90;5.35;;;;;;;20.47;33.53;101696.16;7310640;19;129807;-61
2022/03/03 06:56:06;;;;;;;8.38;5.45;;;;;;;20.46;33.33;101700.03;7308089;19;130158;-61
2022/03/03 06:58:37;;;;;;;9.25;5.78;;;;;;;20.44;33.36;101700.28;7308518;19;129611;-61
2022/03/03 07:01:09;;;;;;;7.57;5.13;;;;;;;20.44;33.56;101700.28;7310248;19;129867;-61
2022/03/03 07:03:36;;;;;;;7.10;4.97;;;;;;;20.43;33.21;101703.31;7308176;19;129971;-60
2022/03/03 07:06:04;;;;;;;7.00;5.20;;;;;;;20.42;33.68;101704.41;7306992;19;130205;-61
2022/03/03 07:08:32;;;;;;;8.65;5.47;;;;;;;20.42;33.56;101707.19;7308561;19;129331;-61
2022/03/03 07:10:59;;;;;;;7.40;5.05;;;;;;;20.41;33.60;101705.47;7309333;19;129561;-61
2022/03/03 07:13:26;;;;;;;7.28;5.75;;;;;;;20.41;33.24;101705.47;7310513;19;129734;-61
2022/03/03 07:16:10;;;;;;;6.80;5.28;;;;;;;20.42;33.64;101709.97;7307037;19;129100;-61
2022/03/03 07:18:42;;;;;;;8.13;5.53;;;;;;;20.41;33.50;101711.88;7310098;19;129024;-61
2022/03/03 07:21:24;;;;;;;9.68;5.05;;;;;;;20.42;33.52;101715.53;7310448;19;130641;-61
2022/03/03 07:24:02;;;;;;;6.70;5.38;;;;;;;20.41;33.53;101708.25;7303072;19;130465;-61
2022/03/03 07:26:31;;;;;;;8.30;5.63;;;;;;;20.41;33.80;101713.81;7309483;19;129560;-60
2022/03/03 07:29:04;;;;;;;7.53;4.97;;;;;;;20.41;33.74;101716.59;7309155;19;129020;-61
2022/03/03 07:31:40;;;;;;;9.07;4.93;;;;;;;20.41;33.94;101711.03;7307159;19;129589;-61
2022/03/03 07:34:09;;;;;;;8.75;5.15;;;;;;;20.39;33.81;101713.22;7309445;19;129220;-61
2022/03/03 07:36:40;;;;;;;7.80;4.95;;;;;;;20.38;33.51;101706.78;7304713;19;129118;-61
2022/03/03 07:39:14;;;;;;;7.20;5.30;;;;;;;20.38;33.99;101705.97;7308725;19;130692;-62
2022/03/03 07:41:42;;;;;;;7.95;5.30;;;;;;;20.38;33.53;101711.50;7304821;19;130540;-61
2022/03/03 07:44:09;;;;;;;6.30;4.45;;;;;;;20.38;33.95;101728.19;7307857;19;129647;-61
2022/03/03 07:46:36;;;;;;;7.65;4.90;;;;;;;20.37;33.71;101716.22;7309470;19;129133;-61
2022/03/03 07:49:04;;;;;;;7.55;4.93;;;;;;;20.36;33.68;101725.66;7304604;19;129271;-61
2022/03/03 07:51:31;;;;;;;6.68;5.07;;;;;;;20.37;33.93;101726.50;7306993;19;131545;-61
2022/03/03 07:53:58;;;;;;;8.73;5.00;;;;;;;20.36;33.49;101733.13;7307678;19;129444;-61
2022/03/03 07:56:28;;;;;;;8.20;4.75;;;;;;;20.37;33.71;101724.53;7307468;19;130150;-61
2022/03/03 07:59:04;;;;;;;7.28;5.07;;;;;;;20.36;33.51;101719.25;7308406;19;129050;-61
2022/03/03 08:01:32;;;;;;;7.73;5.17;;;;;;;20.36;33.74;101722.00;7306528;19;130568;-61
2022/03/03 08:04:01;;;;;;;7.63;5.05;;;;;;;20.40;33.66;101714.91;7306696;19;130486;-61
2022/03/03 08:06:30;;;;;;;9.25;5.30;;;;;;;20.50;33.33;101714.28;7307395;19;129195;-61
2022/03/03 08:08:59;;;;;;;8.30;5.25;;;;;;;20.76;33.06;101707.47;7306313;19;130309;-61
2022/03/03 08:11:28;;;;;;;9.55;5.43;;;;;;;21.22;32.70;101716.03;7307000;19;129461;-61
2022/03/03 08:13:56;;;;;;;7.13;5.35;;;;;;;22.17;31.34;101709.22;7307310;19;130964;-61
2022/03/03 08:16:23;;;;;;;6.25;4.82;;;;;;;23.40;29.63;101710.31;7306734;19;128936;-62
2022/03/03 08:18:54;;;;;;;5.93;4.50;;;;;;;24.41;28.20;101713.66;7309526;19;130190;-61
2022/03/03 08:21:23;;;;;;;6.18;4.72;;;;;;;25.29;27.28;101704.97;7306933;19;130637;-62
2022/03/03 08:23:50;;;;;;;5.18;4.57;;;;;;;25.99;26.25;101709.41;7309251;19;130733;-62
2022/03/03 08:26:18;;;;;;;5.63;4.57;;;;;;;26.55;25.49;101711.44;7306722;19;129341;-62
2022/03/03 08:28:44;;;;;;;6.35;4.78;;;;;;;27.02;24.96;101713.03;7305850;19;130080;-62
2022/03/03 08:31:16;;;;;;;7.97;4.50;;;;;;;27.43;24.32;101714.88;7308117;19;129616;-62
2022/03/03 08:33:52;;;;;;;5.57;4.55;;;;;;;27.82;23.81;101718.06;7306989;19;129442;-60
2022/03/03 08:36:28;;;;;;;8.30;5.60;;;;;;;28.15;23.40;101713.63;7306915;19;129636;-62
2022/03/03 08:39:00;;;;;;;7.43;4.57;;;;;;;28.43;22.83;101711.16;7309328;19;129416;-62
2022/03/03 08:41:30;;;;;;;6.60;4.70;;;;;;;28.69;22.39;101716.53;7306160;19;131150;-62
2022/03/03 08:44:02;;;;;;;6.47;4.80;;;;;;;28.91;21.81;101715.22;7308711;19;130804;-62
2022/03/03 08:46:33;;;;;;;5.65;4.63;;;;;;;29.09;22.05;101710.81;7306058;19;129676;-62
2022/03/03 08:49:03;;;;;;;7.40;5.05;;;;;;;29.17;21.93;101709.31;7309658;19;129650;-64
2022/03/03 08:51:30;;;;;;;4.72;4.22;;;;;;;29.00;21.48;101713.41;7316919;19;130666;-61
2022/03/03 08:53:57;;;;;;;7.25;4.65;;;;;;;28.41;22.41;101719.06;7311945;19;129542;-61
2022/03/03 08:56:25;;;;;;;6.97;4.68;;;;;;;27.33;22.94;101701.72;7316504;19;129315;-61
2022/03/03 08:58:53;;;;;;;6.65;5.00;;;;;;;26.44;24.04;101707.78;7312843;19;129555;-60
2022/03/03 09:01:20;;;;;;;6.47;4.55;;;;;;;25.66;24.70;101701.22;7314460;19;130049;-60
2022/03/03 09:03:47;;;;;;;5.50;4.45;;;;;;;25.00;25.56;101697.00;7316215;19;130194;-60
2022/03/03 09:06:15;;;;;;;5.75;4.72;;;;;;;24.44;26.20;101703.88;7313658;19;129438;-60
2022/03/03 09:08:42;;;;;;;5.35;4.38;;;;;;;23.96;26.76;101696.16;7314539;19;129947;-60
2022/03/03 09:11:09;;;;;;;7.10;4.72;;;;;;;23.54;27.29;101698.75;7316388;19;131286;-60
2022/03/03 09:13:36;;;;;;;7.40;5.03;;;;;;;23.18;27.72;101710.31;7312140;19;132756;-60
2022/03/03 09:16:03;;;;;;;8.02;5.00;;;;;;;22.87;28.17;101710.69;7312382;19;129313;-60
2022/03/03 09:18:31;;;;;;;6.82;4.75;;;;;;;22.61;28.49;101709.47;7313910;19;129323;-60
2022/03/03 09:20:58;;;;;;;6.97;5.43;;;;;;;22.39;28.86;101712.16;7313406;19;129620;-60
2022/03/03 09:23:25;;;;;;;7.32;5.07;;;;;;;22.17;29.09;101709.22;7315398;19;129879;-60
2022/03/03 09:25:51;;;;;;;8.30;4.95;;;;;;;21.99;29.26;101702.81;7313481;19;129338;-60
2022/03/03 09:28:18;;;;;;;7.20;4.82;;;;;;;21.83;29.75;101710.88;7315433;19;130483;-60
2022/03/03 09:30:45;;;;;;;9.80;5.47;;;;;;;21.71;30.07;101712.88;7313927;19;131297;-60
2022/03/03 09:33:12;;;;;;;7.88;4.75;;;;;;;21.58;29.87;101713.16;7314477;19;129550;-60
2022/03/03 09:35:39;;;;;;;7.35;5.00;;;;;;;21.47;30.04;101707.34;7316005;19;129436;-60
2022/03/03 09:38:06;;;;;;;6.10;4.65;;;;;;;21.36;30.14;101711.84;7313124;19;128747;-60
2022/03/03 09:40:33;;;;;;;7.47;5.50;;;;;;;21.27;30.62;101718.06;7312396;19;131313;-60
2022/03/03 09:43:04;;;;;;;5.88;4.82;;;;;;;21.18;30.45;101712.03;7315167;19;130601;-60
2022/03/03 09:45:32;;;;;;;6.22;4.88;;;;;;;21.11;30.72;101702.97;7313073;19;129029;-60
2022/03/03 09:48:03;;;;;;;6.85;4.82;;;;;;;21.03;30.59;101712.53;7315066;19;129087;-60
2022/03/03 09:50:31;;;;;;;7.38;5.15;;;;;;;20.97;30.87;101708.78;7310405;19;130132;-60
2022/03/03 09:52:58;;;;;;;8.07;4.72;;;;;;;20.91;30.86;101693.06;7313889;19;129530;-60
2022/03/03 09:55:25;;;;;;;6.50;4.93;;;;;;;20.86;31.29;101696.56;7315701;19;129174;-60
2022/03/03 09:57:52;;;;;;;6.80;4.70;;;;;;;20.81;31.29;101696.44;7312419;19;128895;-60
2022/03/03 10:00:19;;;;;;;5.65;4.38;;;;;;;20.75;31.47;101695.47;7314214;19;131441;-60
2022/03/03 10:03:08;;;;;;;7.43;5.25;;;;;;;20.72;31.10;101692.31;7312158;19;129369;-60
2022/03/03 10:05:42;;;;;;;5.63;4.53;;;;;;;20.68;31.40;101693.88;7311185;19;129924;-60
2022/03/03 10:08:11;;;;;;;8.93;4.95;;;;;;;20.63;31.50;101691.00;7315291;19;129791;-60
2022/03/03 10:10:41;;;;;;;6.45;4.72;;;;;;;20.58;31.62;101695.34;7311206;19;130224;-60
2022/03/03 10:13:10;;;;;;;8.18;4.88;;;;;;;20.55;31.25;101683.84;7313639;19;130410;-61
2022/03/03 10:15:37;;;;;;;6.22;4.55;;;;;;;20.51;31.31;101689.06;7314921;19;129097;-61
2022/03/03 10:18:07;;;;;;;7.88;5.10;;;;;;;20.48;31.47;101692.31;7311399;19;129311;-60
2022/03/03 10:20:46;;;;;;;10.93;4.75;;;;;;;20.46;31.78;101688.91;7314770;19;130710;-60
2022/03/03 10:23:14;;;;;;;6.93;4.47;;;;;;;20.42;31.84;101696.91;7311214;19;129528;-61
2022/03/03 10:25:44;;;;;;;9.40;4.88;;;;;;;20.40;31.84;101692.66;7312680;19;128932;-61
2022/03/03 10:28:21;;;;;;;7.03;5.22;;;;;;;20.37;31.73;101701.47;7313976;19;129159;-60
2022/03/03 10:30:50;;;;;;;8.15;4.88;;;;;;;20.35;31.76;101695.31;7310788;19;129512;-60
2022/03/03 10:33:20;;;;;;;9.07;4.88;;;;;;;20.32;31.69;101691.09;7313314;19;129504;-60
2022/03/03 10:36:12;;;;;;;5.70;4.63;;;;;;;20.30;31.60;101693.25;7310133;19;128963;-60
2022/03/03 10:38:46;;;;;;;7.10;4.82;;;;;;;20.26;31.77;101679.00;7311568;19;129023;-60
2022/03/03 10:41:46;;;;;;;7.28;5.10;;;;;;;20.24;31.66;101677.56;7311598;19;129637;-60
2022/03/03 10:44:17;;;;;;;9.40;4.68;;;;;;;20.19;31.65;101681.03;7313954;19;129500;-60
2022/03/03 10:47:11;;;;;;;6.45;4.53;;;;;;;20.17;32.10;101677.66;7311542;19;130250;-60
2022/03/03 10:49:43;;;;;;;9.60;4.88;;;;;;;20.13;31.69;101687.53;7312815;19;129081;-60
2022/03/03 10:52:15;;;;;;;6.82;4.90;;;;;;;20.12;32.26;101694.19;7311433;19;129071;-60
2022/03/03 10:54:54;;;;;;;7.18;4.80;;;;;;;20.10;32.07;101696.34;7312035;19;130705;-61
2022/03/03 10:57:39;;;;;;;7.50;4.55;;;;;;;20.07;31.81;101699.59;7313128;19;129147;-60
2022/03/03 11:00:11;;;;;;;7.53;4.75;;;;;;;20.03;31.71;101687.28;7313388;19;128940;-61
2022/03/03 11:02:41;;;;;;;6.78;4.65;;;;;;;20.01;32.05;101690.28;7311149;19;129666;-60
2022/03/03 11:05:10;;;;;;;7.18;4.97;;;;;;;20.00;32.30;101691.38;7313079;19;129463;-61
2022/03/03 11:07:41;;;;;;;6.93;4.45;;;;;;;19.98;32.24;101691.56;7309788;19;129875;-61
2022/03/03 11:10:10;;;;;;;8.23;4.72;;;;;;;19.97;31.82;101684.31;7311790;19;129672;-60
2022/03/03 11:12:38;;;;;;;6.57;4.60;;;;;;;19.95;32.16;101683.72;7310986;19;129678;-61
2022/03/03 11:15:05;;;;;;;6.45;4.70;;;;;;;19.94;32.14;101681.19;7311252;19;129550;-61
2022/03/03 11:17:33;;;;;;;5.68;4.35;;;;;;;19.92;32.18;101684.22;7313282;19;128701;-60
2022/03/03 11:20:00;;;;;;;7.22;4.50;;;;;;;19.91;32.39;101684.44;7310192;19;128987;-60